createdAt,value
2023-05-18T00:01:41.266Z,12.85
2023-05-18T00:03:47.515Z,12.05
2023-05-18T00:05:52.934Z,12.63
2023-05-18T00:08:00.644Z,13.98
2023-05-18T00:10:06.868Z,12.68
2023-05-18T00:12:12.801Z,11.10
2023-05-18T00:14:17.902Z,14.02
2023-05-18T00:16:23.544Z,11.93
2023-05-18T00:18:28.893Z,13.80
2023-05-18T00:20:34.859Z,13.70
2023-05-18T00:22:43.082Z,15.50
2023-05-18T00:24:51.467Z,16.50
2023-05-18T00:26:58.351Z,13.43
2023-05-18T00:29:03.485Z,20.17
2023-05-18T00:31:08.767Z,12.95
2023-05-18T00:33:14.265Z,13.05
2023-05-18T00:35:19.376Z,18.58
2023-05-18T00:37:25.558Z,12.60
2023-05-18T00:39:30.676Z,18.52
2023-05-18T00:41:38.997Z,12.52
2023-05-18T00:43:44.186Z,15.43
2023-05-18T00:45:49.567Z,11.63
2023-05-18T00:47:55.313Z,12.63
2023-05-18T00:50:00.605Z,13.32
2023-05-18T00:52:08.135Z,13.57
2023-05-18T00:54:13.278Z,20.55
2023-05-18T00:56:18.790Z,13.65
2023-05-18T00:58:26.832Z,25.25
2023-05-18T01:00:32.133Z,18.15
2023-05-18T01:02:43.218Z,12.63
2023-05-18T01:04:48.391Z,13.32
2023-05-18T01:06:56.877Z,11.88
2023-05-18T01:09:04.398Z,16.08
2023-05-18T01:11:21.866Z,15.60
2023-05-18T01:13:38.850Z,11.32
2023-05-18T01:15:45.203Z,15.93
2023-05-18T01:18:10.744Z,14.77
2023-05-18T01:20:25.336Z,13.15
2023-05-18T01:22:51.997Z,17.33
2023-05-18T01:25:06.796Z,15.00
2023-05-18T01:27:19.441Z,13.98
2023-05-18T01:29:25.726Z,15.98
2023-05-18T01:31:31.564Z,13.57
2023-05-18T01:33:36.734Z,17.45
2023-05-18T01:35:48.591Z,14.13
2023-05-18T01:37:54.294Z,13.35
2023-05-18T01:39:59.407Z,12.13
2023-05-18T01:42:12.394Z,11.48
2023-05-18T01:44:27.164Z,11.13
2023-05-18T01:46:42.800Z,11.60
2023-05-18T01:48:56.895Z,13.55
2023-05-18T01:51:03.501Z,16.15
2023-05-18T01:53:16.786Z,16.10
2023-05-18T01:55:23.762Z,12.40
2023-05-18T01:57:32.736Z,10.27
2023-05-18T01:59:41.872Z,12.63
2023-05-18T02:01:47.736Z,13.48
2023-05-18T02:03:54.755Z,13.48
2023-05-18T02:06:00.334Z,10.57
2023-05-18T02:08:06.173Z,12.02
2023-05-18T02:10:13.655Z,11.70
2023-05-18T02:12:19.651Z,14.18
2023-05-18T02:14:25.154Z,10.95
2023-05-18T02:16:33.291Z,16.40
2023-05-18T02:18:39.037Z,10.48
2023-05-18T02:20:44.881Z,11.05
2023-05-18T02:22:49.930Z,15.25
2023-05-18T02:24:55.813Z,14.10
2023-05-18T02:27:01.595Z,14.15
2023-05-18T02:29:08.330Z,15.27
2023-05-18T02:31:15.739Z,12.90
2023-05-18T02:33:26.724Z,16.55
2023-05-18T02:35:32.572Z,17.27
2023-05-18T02:37:40.262Z,15.13
2023-05-18T02:39:45.942Z,14.07
2023-05-18T02:41:52.188Z,13.85
2023-05-18T02:43:57.959Z,19.05
2023-05-18T02:46:04.757Z,16.67
2023-05-18T02:48:12.721Z,12.27
2023-05-18T02:50:20.777Z,16.25
2023-05-18T02:52:28.338Z,18.30
2023-05-18T02:54:34.078Z,17.98
2023-05-18T02:56:41.987Z,12.32
2023-05-18T02:59:01.506Z,14.40
2023-05-18T03:01:19.242Z,16.13
2023-05-18T03:03:28.757Z,18.95
2023-05-18T03:05:37.073Z,17.67
2023-05-18T03:07:42.365Z,14.32
2023-05-18T03:09:47.819Z,18.80
2023-05-18T03:11:53.897Z,15.85
2023-05-18T03:13:59.021Z,15.13
2023-05-18T03:16:04.103Z,16.90
2023-05-18T03:18:09.769Z,24.23
2023-05-18T03:20:15.798Z,18.45
2023-05-18T03:22:23.792Z,15.18
2023-05-18T03:24:30.786Z,18.55
2023-05-18T03:26:39.919Z,21.40
2023-05-18T03:28:45.078Z,18.42
2023-05-18T03:30:50.647Z,17.83
2023-05-18T03:32:56.903Z,21.40
2023-05-18T03:35:04.840Z,16.25
2023-05-18T03:37:11.057Z,18.83
2023-05-18T03:39:19.205Z,15.40
2023-05-18T03:41:24.781Z,25.88
2023-05-18T03:43:32.777Z,14.73
2023-05-18T03:45:39.153Z,16.80
2023-05-18T03:47:45.535Z,17.48
2023-05-18T03:49:51.584Z,14.85
2023-05-18T03:51:57.824Z,16.88
2023-05-18T03:54:03.354Z,15.90
2023-05-18T03:56:13.892Z,19.83
2023-05-18T03:58:20.298Z,14.02
2023-05-18T04:00:25.986Z,17.48
2023-05-18T04:02:31.312Z,14.38
2023-05-18T04:04:36.592Z,17.20
2023-05-18T04:06:42.512Z,14.57
2023-05-18T04:08:48.504Z,16.40
2023-05-18T04:10:54.287Z,16.13
2023-05-18T04:13:02.304Z,13.60
2023-05-18T04:15:09.377Z,18.00
2023-05-18T04:17:15.129Z,12.60
2023-05-18T04:19:21.900Z,16.75
2023-05-18T04:21:27.332Z,11.18
2023-05-18T04:23:33.596Z,15.18
2023-05-18T04:25:39.798Z,19.27
2023-05-18T04:27:47.803Z,18.48
2023-05-18T04:29:58.362Z,13.32
2023-05-18T04:32:03.593Z,14.98
2023-05-18T04:34:09.225Z,16.48
2023-05-18T04:36:15.193Z,18.90
2023-05-18T04:38:23.257Z,15.80
2023-05-18T04:40:28.434Z,20.08
2023-05-18T04:42:34.716Z,21.55
2023-05-18T04:44:40.323Z,23.63
2023-05-18T04:46:48.502Z,17.00
2023-05-18T04:48:58.314Z,17.45
2023-05-18T04:51:36.098Z,19.48
2023-05-18T04:53:41.208Z,15.43
2023-05-18T04:55:47.471Z,18.95
2023-05-18T04:57:54.218Z,14.68
2023-05-18T04:59:59.295Z,14.98
2023-05-18T05:02:08.117Z,18.48
2023-05-18T05:04:13.502Z,16.80
2023-05-18T05:06:19.818Z,19.38
2023-05-18T05:08:25.318Z,18.17
2023-05-18T05:10:31.094Z,15.73
2023-05-18T05:12:36.582Z,17.75
2023-05-18T05:14:41.703Z,17.33
2023-05-18T05:16:46.830Z,20.80
2023-05-18T05:18:55.344Z,15.73
2023-05-18T05:21:00.486Z,20.55
2023-05-18T05:23:06.055Z,15.75
2023-05-18T05:25:12.444Z,18.98
2023-05-18T05:27:18.967Z,16.98
2023-05-18T05:29:26.536Z,21.52
2023-05-18T05:31:32.272Z,19.52
2023-05-18T05:33:37.362Z,20.48
2023-05-18T05:35:45.058Z,17.17
2023-05-18T05:37:50.997Z,17.45
2023-05-18T05:39:56.738Z,15.02
2023-05-18T05:42:01.886Z,16.85
2023-05-18T05:44:07.656Z,14.98
2023-05-18T05:46:12.751Z,14.20
2023-05-18T05:48:18.681Z,14.43
2023-05-18T05:50:24.355Z,21.83
2023-05-18T05:52:34.697Z,22.20
2023-05-18T05:54:41.201Z,16.52
2023-05-18T05:56:46.704Z,18.35
2023-05-18T05:58:53.639Z,15.73
2023-05-18T06:00:59.212Z,13.68
2023-05-18T06:03:04.337Z,14.32
2023-05-18T06:05:13.407Z,16.13
2023-05-18T06:07:18.584Z,14.60
2023-05-18T06:09:26.521Z,17.13
2023-05-18T06:11:32.931Z,16.25
2023-05-18T06:13:38.217Z,16.45
2023-05-18T06:15:43.359Z,16.92
2023-05-18T06:17:49.742Z,12.70
2023-05-18T06:19:55.029Z,16.17
2023-05-18T06:22:00.249Z,21.83
2023-05-18T06:24:09.638Z,12.80
2023-05-18T06:26:36.482Z,16.33
2023-05-18T06:29:00.445Z,14.80
2023-05-18T06:31:13.317Z,13.43
2023-05-18T06:33:30.134Z,14.10
2023-05-18T06:35:36.491Z,13.07
2023-05-18T06:37:41.820Z,20.50
2023-05-18T06:39:47.657Z,14.88
2023-05-18T06:41:55.668Z,14.27
2023-05-18T06:44:04.971Z,17.05
2023-05-18T06:46:32.191Z,17.05
2023-05-18T06:48:45.716Z,16.08
2023-05-18T06:50:50.872Z,10.57
2023-05-18T06:52:56.048Z,11.63
2023-05-18T06:55:01.435Z,12.38
2023-05-18T06:57:10.262Z,18.20
2023-05-18T06:59:16.154Z,12.77
2023-05-18T07:01:22.164Z,13.63
2023-05-18T07:03:27.512Z,14.48
2023-05-18T07:05:33.153Z,11.52
2023-05-18T07:07:38.883Z,18.88
2023-05-18T07:09:45.894Z,12.20
2023-05-18T07:11:51.584Z,14.65
2023-05-18T07:13:59.529Z,16.05
2023-05-18T07:16:04.643Z,11.57
2023-05-18T07:18:10.420Z,12.05
2023-05-18T07:20:15.674Z,12.20
2023-05-18T07:22:20.860Z,12.95
2023-05-18T07:24:25.994Z,13.68
2023-05-18T07:26:31.936Z,8.73
2023-05-18T07:28:37.157Z,16.15
2023-05-18T07:30:44.814Z,9.80
2023-05-18T07:32:51.787Z,11.20
2023-05-18T07:34:57.744Z,9.88
2023-05-18T07:37:03.383Z,9.50
2023-05-18T07:39:09.183Z,12.63
2023-05-18T07:41:14.315Z,13.68
2023-05-18T07:43:19.951Z,10.00
2023-05-18T07:45:25.104Z,19.58
2023-05-18T07:47:33.767Z,10.45
2023-05-18T07:49:39.550Z,16.23
2023-05-18T07:51:44.861Z,11.10
2023-05-18T07:53:50.283Z,11.43
2023-05-18T07:55:55.356Z,11.18
2023-05-18T07:58:01.422Z,10.98
2023-05-18T08:00:09.981Z,7.43
2023-05-18T08:02:20.117Z,10.43
2023-05-18T08:04:28.026Z,8.27
2023-05-18T08:06:33.828Z,8.25
2023-05-18T08:08:38.991Z,8.57
2023-05-18T08:10:44.269Z,13.38
2023-05-18T08:12:49.659Z,9.93
2023-05-18T08:14:54.735Z,11.50
2023-05-18T08:17:02.594Z,12.07
2023-05-18T08:19:07.776Z,9.38
2023-05-18T08:21:15.663Z,9.70
2023-05-18T08:23:21.148Z,15.48
2023-05-18T08:25:26.587Z,9.10
2023-05-18T08:27:31.924Z,14.13
2023-05-18T08:29:37.074Z,10.45
2023-05-18T08:31:44.987Z,13.25
2023-05-18T08:33:51.537Z,11.10
2023-05-18T08:35:56.816Z,8.35
2023-05-18T08:38:05.686Z,12.60
2023-05-18T08:40:14.918Z,10.20
2023-05-18T08:42:29.560Z,9.70
2023-05-18T08:44:48.597Z,11.52
2023-05-18T08:46:54.844Z,9.10
2023-05-18T08:49:03.595Z,14.75
2023-05-18T08:51:11.489Z,12.50
2023-05-18T08:53:21.532Z,11.38
2023-05-18T08:55:28.313Z,11.00
2023-05-18T08:57:36.233Z,12.35
2023-05-18T08:59:45.507Z,12.02
2023-05-18T09:01:50.652Z,9.27
2023-05-18T09:03:55.956Z,13.30
2023-05-18T09:06:03.832Z,11.25
2023-05-18T09:08:10.499Z,10.63
2023-05-18T09:10:18.161Z,11.30
2023-05-18T09:12:25.233Z,12.82
2023-05-18T09:14:30.303Z,19.08
2023-05-18T09:16:36.166Z,7.80
2023-05-18T09:18:41.789Z,13.25
2023-05-18T09:20:48.276Z,12.00
2023-05-18T09:22:54.041Z,13.48
2023-05-18T09:24:59.341Z,12.05
2023-05-18T09:27:08.065Z,8.63
2023-05-18T09:29:21.107Z,10.77
2023-05-18T09:31:27.938Z,9.93
2023-05-18T09:33:40.745Z,12.73
2023-05-18T09:35:47.080Z,16.05
2023-05-18T09:37:53.257Z,11.40
2023-05-18T09:40:08.181Z,14.30
2023-05-18T09:42:15.991Z,11.85
2023-05-18T09:44:21.314Z,11.68
2023-05-18T09:46:26.625Z,8.38
2023-05-18T09:48:32.055Z,11.27
2023-05-18T09:50:37.679Z,8.20
2023-05-18T09:52:47.861Z,8.82
2023-05-18T09:55:02.639Z,12.10
2023-05-18T09:57:11.193Z,12.10
2023-05-18T09:59:19.707Z,9.93
2023-05-18T10:01:24.920Z,14.90
2023-05-18T10:03:34.094Z,10.52
2023-05-18T10:05:40.003Z,10.00
2023-05-18T10:07:46.958Z,10.18
2023-05-18T10:10:08.517Z,9.30
2023-05-18T10:12:16.373Z,9.77
2023-05-18T10:14:31.394Z,11.60
2023-05-18T10:16:37.041Z,13.65
2023-05-18T10:18:42.966Z,11.43
2023-05-18T10:20:51.391Z,9.48
2023-05-18T10:22:59.516Z,14.48
2023-05-18T10:25:08.200Z,16.58
2023-05-18T10:27:14.537Z,11.68
2023-05-18T10:29:23.170Z,8.75
2023-05-18T10:31:30.848Z,11.55
2023-05-18T10:33:38.616Z,10.52
2023-05-18T10:35:44.251Z,10.80
2023-05-18T10:37:53.316Z,11.38
2023-05-18T10:40:01.224Z,9.40
2023-05-18T10:42:08.926Z,10.13
2023-05-18T10:44:14.115Z,11.48
2023-05-18T10:46:26.574Z,17.60
2023-05-18T10:48:32.732Z,10.40
2023-05-18T10:50:40.565Z,10.77
2023-05-18T10:52:47.545Z,7.43
2023-05-18T10:54:52.676Z,10.73
2023-05-18T10:57:01.130Z,10.10
2023-05-18T10:59:07.313Z,9.75
2023-05-18T11:01:14.698Z,13.25
2023-05-18T11:03:23.655Z,13.25
2023-05-18T11:05:29.459Z,8.57
2023-05-18T11:07:35.072Z,12.30
2023-05-18T11:09:41.367Z,11.20
2023-05-18T11:11:56.532Z,9.02
2023-05-18T11:14:04.911Z,10.82
2023-05-18T11:16:11.632Z,11.77
2023-05-18T11:18:18.066Z,9.40
2023-05-18T11:20:28.998Z,13.73
2023-05-18T11:22:51.958Z,10.35
2023-05-18T11:24:57.009Z,13.10
2023-05-18T11:27:04.152Z,10.10
2023-05-18T11:29:24.527Z,10.25
2023-05-18T11:31:47.255Z,13.55
2023-05-18T11:33:52.334Z,8.85
2023-05-18T11:36:15.166Z,13.48
2023-05-18T11:38:21.331Z,11.68
2023-05-18T11:40:49.453Z,11.05
2023-05-18T11:43:01.782Z,10.40
2023-05-18T11:45:11.171Z,12.40
2023-05-18T11:47:16.262Z,11.73
2023-05-18T11:49:23.897Z,10.93
2023-05-18T11:51:35.002Z,6.93
2023-05-18T11:53:40.218Z,10.07
2023-05-18T11:55:46.052Z,11.70
2023-05-18T11:57:55.064Z,9.52
2023-05-18T12:00:01.715Z,9.50
2023-05-18T12:02:10.746Z,11.38
2023-05-18T12:04:16.211Z,10.93
2023-05-18T12:06:21.950Z,6.38
2023-05-18T12:08:30.536Z,9.02
2023-05-18T12:10:39.856Z,10.93
2023-05-18T12:12:45.166Z,11.85
2023-05-18T12:14:57.593Z,11.77
2023-05-18T12:17:04.199Z,14.10
2023-05-18T12:19:11.163Z,10.50
2023-05-18T12:21:17.208Z,9.15
2023-05-18T12:23:22.276Z,11.98
2023-05-18T12:25:30.922Z,9.43
2023-05-18T12:27:42.045Z,10.73
2023-05-18T12:29:47.153Z,9.25
2023-05-18T12:31:52.772Z,12.15
2023-05-18T12:33:59.181Z,10.55
2023-05-18T12:36:04.845Z,12.65
2023-05-18T12:38:09.899Z,8.30
2023-05-18T12:40:17.907Z,9.63
2023-05-18T12:42:25.648Z,10.13
2023-05-18T12:44:30.902Z,8.88
2023-05-18T12:46:36.403Z,8.57
2023-05-18T12:48:48.878Z,9.30
2023-05-18T12:50:55.727Z,11.10
2023-05-18T12:53:01.995Z,11.35
2023-05-18T12:55:11.326Z,12.25
2023-05-18T12:57:16.591Z,9.38
2023-05-18T12:59:24.256Z,15.57
2023-05-18T13:01:30.810Z,7.10
2023-05-18T13:03:37.441Z,8.15
2023-05-18T13:05:45.059Z,8.52
2023-05-18T13:07:50.397Z,13.10
2023-05-18T13:09:56.929Z,8.20
2023-05-18T13:12:07.581Z,9.20
2023-05-18T13:14:13.193Z,7.85
2023-05-18T13:16:24.292Z,9.45
2023-05-18T13:18:30.386Z,8.48
2023-05-18T13:20:38.269Z,10.65
2023-05-18T13:22:43.363Z,8.82
2023-05-18T13:24:48.495Z,8.73
2023-05-18T13:26:53.589Z,8.52
2023-05-18T13:29:00.624Z,10.05
2023-05-18T13:31:05.833Z,10.95
2023-05-18T13:33:14.042Z,8.13
2023-05-18T13:35:19.536Z,11.65
2023-05-18T13:37:24.595Z,8.80
2023-05-18T13:39:29.691Z,10.95
2023-05-18T13:41:36.548Z,8.02
2023-05-18T13:43:41.727Z,7.43
2023-05-18T13:45:47.172Z,10.45
2023-05-18T13:47:53.754Z,8.45
2023-05-18T13:50:01.445Z,8.98
2023-05-18T13:52:07.247Z,10.40
2023-05-18T13:54:12.386Z,9.50
2023-05-18T13:56:17.452Z,10.82
2023-05-18T13:58:23.926Z,7.47
2023-05-18T14:00:29.217Z,9.95
2023-05-18T14:02:34.472Z,7.85
2023-05-18T14:04:39.623Z,8.23
2023-05-18T14:06:47.554Z,9.00
2023-05-18T14:08:52.656Z,11.60
2023-05-18T14:10:57.692Z,9.52
2023-05-18T14:13:03.266Z,8.77
2023-05-18T14:15:10.077Z,6.55
2023-05-18T14:17:15.599Z,9.27
2023-05-18T14:19:21.152Z,9.52
2023-05-18T14:21:26.283Z,11.82
2023-05-18T14:23:34.196Z,9.88
2023-05-18T14:25:39.286Z,5.85
2023-05-18T14:27:44.383Z,8.68
2023-05-18T14:29:49.470Z,9.00
2023-05-18T14:31:54.683Z,8.25
2023-05-18T14:34:00.058Z,9.10
2023-05-18T14:36:05.245Z,7.97
2023-05-18T14:38:10.355Z,7.30
2023-05-18T14:40:18.548Z,9.15
2023-05-18T14:42:23.594Z,9.15
2023-05-18T14:44:29.166Z,9.82
2023-05-18T14:46:34.403Z,10.07
2023-05-18T14:48:39.493Z,12.35
2023-05-18T14:50:44.528Z,6.78
2023-05-18T14:52:49.872Z,8.73
2023-05-18T14:54:55.941Z,9.70
2023-05-18T14:57:03.608Z,10.48
2023-05-18T14:59:08.754Z,7.22
2023-05-18T15:01:13.832Z,7.43
2023-05-18T15:03:18.949Z,8.68
2023-05-18T15:05:24.289Z,10.68
2023-05-18T15:07:29.583Z,7.45
2023-05-18T15:09:34.770Z,8.65
2023-05-18T15:11:39.805Z,8.13
2023-05-18T15:13:48.037Z,7.75
2023-05-18T15:15:53.794Z,8.82
2023-05-18T15:17:59.003Z,7.45
2023-05-18T15:20:04.549Z,9.73
2023-05-18T15:22:09.863Z,7.47
2023-05-18T15:24:15.163Z,9.52
2023-05-18T15:26:21.464Z,7.78
2023-05-18T15:28:26.529Z,7.90
2023-05-18T15:30:34.475Z,8.80
2023-05-18T15:32:39.693Z,8.38
2023-05-18T15:34:44.876Z,5.93
2023-05-18T15:36:50.206Z,8.23
2023-05-18T15:38:55.277Z,8.02
2023-05-18T15:41:00.664Z,8.43
2023-05-18T15:43:05.722Z,8.55
2023-05-18T15:45:12.421Z,7.13
2023-05-18T15:47:20.598Z,8.50
2023-05-18T15:49:25.684Z,7.82
2023-05-18T15:51:31.149Z,9.80
2023-05-18T15:53:36.245Z,7.00
2023-05-18T15:55:41.556Z,7.75
2023-05-18T15:57:46.695Z,7.47
2023-05-18T15:59:51.856Z,6.30
2023-05-18T16:01:57.434Z,7.43
2023-05-18T16:04:05.803Z,9.98
2023-05-18T16:06:11.764Z,8.18
2023-05-18T16:08:17.225Z,7.60
2023-05-18T16:10:23.591Z,7.45
2023-05-18T16:12:28.684Z,7.05
2023-05-18T16:14:33.772Z,7.90
2023-05-18T16:16:39.130Z,6.68
2023-05-18T16:18:44.299Z,9.60
2023-05-18T16:20:51.969Z,8.07
2023-05-18T16:22:57.100Z,8.68
2023-05-18T16:25:02.324Z,6.28
2023-05-18T16:27:08.000Z,5.63
2023-05-18T16:29:13.090Z,11.10
2023-05-18T16:31:18.168Z,9.27
2023-05-18T16:33:25.291Z,12.23
2023-05-18T16:35:32.017Z,12.77
2023-05-18T16:37:39.775Z,9.40
2023-05-18T16:39:44.849Z,9.18
2023-05-18T16:41:49.925Z,7.10
2023-05-18T16:43:55.867Z,5.32
2023-05-18T16:46:01.098Z,8.43
2023-05-18T16:48:06.815Z,7.68
2023-05-18T16:50:13.348Z,6.00
2023-05-18T16:52:18.613Z,9.05
2023-05-18T16:54:26.261Z,6.40
2023-05-18T16:56:32.115Z,4.68
2023-05-18T16:58:37.194Z,6.35
2023-05-18T17:00:42.246Z,6.43
2023-05-18T17:02:47.933Z,6.68
2023-05-18T17:04:53.319Z,6.63
2023-05-18T17:06:58.909Z,8.65
2023-05-18T17:09:06.279Z,8.52
2023-05-18T17:11:14.545Z,8.38
2023-05-18T17:13:19.994Z,7.50
2023-05-18T17:15:25.254Z,8.93
2023-05-18T17:17:30.523Z,9.85
2023-05-18T17:19:36.532Z,9.32
2023-05-18T17:21:42.653Z,8.07
2023-05-18T17:23:47.919Z,8.50
2023-05-18T17:26:00.933Z,7.57
2023-05-18T17:28:16.508Z,6.18
2023-05-18T17:30:21.572Z,8.38
2023-05-18T17:32:27.085Z,11.52
2023-05-18T17:34:32.553Z,12.18
2023-05-18T17:36:37.639Z,6.82
2023-05-18T17:38:42.971Z,7.85
2023-05-18T17:40:48.132Z,9.35
2023-05-18T17:42:53.387Z,9.65
2023-05-18T17:45:01.095Z,5.85
2023-05-18T17:47:06.556Z,8.50
2023-05-18T17:49:12.273Z,8.68
2023-05-18T17:51:17.387Z,7.88
2023-05-18T17:53:22.710Z,4.68
2023-05-18T17:55:27.847Z,7.35
2023-05-18T17:57:33.071Z,10.70
2023-05-18T17:59:38.240Z,6.82
2023-05-18T18:01:45.914Z,10.30
2023-05-18T18:03:51.239Z,9.35
2023-05-18T18:05:56.748Z,10.85
2023-05-18T18:08:01.814Z,7.85
2023-05-18T18:10:08.153Z,6.28
2023-05-18T18:12:13.314Z,7.60
2023-05-18T18:14:18.963Z,6.13
2023-05-18T18:16:24.588Z,6.85
2023-05-18T18:18:32.785Z,11.40
2023-05-18T18:20:38.407Z,7.55
2023-05-18T18:22:43.453Z,11.38
2023-05-18T18:24:48.763Z,9.38
2023-05-18T18:26:55.804Z,6.95
2023-05-18T18:29:01.143Z,9.65
2023-05-18T18:31:07.388Z,7.05
2023-05-18T18:33:12.596Z,8.90
2023-05-18T18:35:20.968Z,8.40
2023-05-18T18:37:26.070Z,8.70
2023-05-18T18:39:31.551Z,8.85
2023-05-18T18:41:36.806Z,3.72
2023-05-18T18:43:41.872Z,7.28
2023-05-18T18:45:47.258Z,7.82
2023-05-18T18:47:52.353Z,10.43
2023-05-18T18:49:57.865Z,7.50
2023-05-18T18:52:06.661Z,9.60
2023-05-18T18:54:11.802Z,6.47
2023-05-18T18:56:16.884Z,5.93
2023-05-18T18:58:24.323Z,7.60
2023-05-18T19:00:29.858Z,6.93
2023-05-18T19:02:34.933Z,8.10
2023-05-18T19:04:40.034Z,6.93
2023-05-18T19:06:46.680Z,8.07
2023-05-18T19:08:54.441Z,7.78
2023-05-18T19:11:00.029Z,8.10
2023-05-18T19:13:06.133Z,7.78
2023-05-18T19:15:13.666Z,7.28
2023-05-18T19:17:18.964Z,9.25
2023-05-18T19:19:24.171Z,7.82
2023-05-18T19:21:29.536Z,6.68
2023-05-18T19:23:34.605Z,7.25
2023-05-18T19:25:42.610Z,6.38
2023-05-18T19:27:48.052Z,7.10
2023-05-18T19:29:53.374Z,6.82
2023-05-18T19:31:59.759Z,6.32
2023-05-18T19:34:05.091Z,6.72
2023-05-18T19:36:11.381Z,6.88
2023-05-18T19:40:58.579Z,7.97
2023-05-18T19:43:03.848Z,10.85
2023-05-18T19:45:10.256Z,4.82
2023-05-18T19:47:15.316Z,8.35
2023-05-18T19:49:21.381Z,7.65
2023-05-18T19:51:26.507Z,8.13
2023-05-18T19:53:31.579Z,9.75
2023-05-18T19:55:36.688Z,8.45
2023-05-18T19:57:44.316Z,10.07
2023-05-18T19:59:49.391Z,8.10
2023-05-18T20:01:56.554Z,12.65
2023-05-18T20:04:01.822Z,7.30
2023-05-18T20:06:07.672Z,8.88
2023-05-18T20:08:13.216Z,8.02
2023-05-18T20:10:18.862Z,9.15
2023-05-18T20:12:23.966Z,6.90
2023-05-18T20:14:33.473Z,12.30
2023-05-18T20:16:39.892Z,9.80
2023-05-18T20:18:46.004Z,9.95
2023-05-18T20:20:51.186Z,11.80
2023-05-18T20:22:56.282Z,9.27
2023-05-18T20:25:01.478Z,10.00
2023-05-18T20:27:06.821Z,8.63
2023-05-18T20:29:13.025Z,10.32
2023-05-18T20:31:20.826Z,8.05
2023-05-18T20:33:26.681Z,8.38
2023-05-18T20:35:32.181Z,8.15
2023-05-18T20:37:37.810Z,10.38
2023-05-18T20:39:50.686Z,6.93
2023-05-18T20:41:57.806Z,8.15
2023-05-18T20:44:03.181Z,7.70
2023-05-18T20:46:09.926Z,6.90
2023-05-18T20:48:24.885Z,10.48
2023-05-18T20:50:30.428Z,9.50
2023-05-18T20:52:36.341Z,6.70
2023-05-18T20:54:41.724Z,7.97
2023-05-18T20:56:47.586Z,6.75
2023-05-18T20:58:52.986Z,8.38
2023-05-18T21:00:58.125Z,7.68
2023-05-18T21:03:04.440Z,11.68
2023-05-18T21:05:13.054Z,12.02
2023-05-18T21:07:19.024Z,8.00
2023-05-18T21:09:24.256Z,12.68
2023-05-18T21:11:31.130Z,8.98
2023-05-18T21:13:37.269Z,7.90
2023-05-18T21:15:42.483Z,6.70
2023-05-18T21:17:47.836Z,10.35
2023-05-18T21:19:53.816Z,9.95
2023-05-18T21:22:01.583Z,8.13
2023-05-18T21:24:07.009Z,5.38
2023-05-18T21:26:12.423Z,9.57
2023-05-18T21:28:19.126Z,6.53
2023-05-18T21:30:24.289Z,6.15
2023-05-18T21:32:29.558Z,8.52
2023-05-18T21:34:34.764Z,10.23
2023-05-18T21:36:40.056Z,9.27
2023-05-18T21:38:47.774Z,8.88
2023-05-18T21:40:53.412Z,8.68
2023-05-18T21:42:58.507Z,10.35
2023-05-18T21:45:03.864Z,5.70
2023-05-18T21:47:09.234Z,8.30
2023-05-18T21:49:14.585Z,6.65
2023-05-18T21:51:20.597Z,7.47
2023-05-18T21:53:25.811Z,6.93
2023-05-18T21:55:33.933Z,9.13
2023-05-18T21:57:39.059Z,5.30
2023-05-18T21:59:44.122Z,4.95
2023-05-18T22:01:49.535Z,8.05
2023-05-18T22:03:54.883Z,7.10
2023-05-18T22:06:00.549Z,7.60
2023-05-18T22:08:05.792Z,11.48
2023-05-18T22:10:11.411Z,7.30
2023-05-18T22:12:19.328Z,8.45
2023-05-18T22:14:24.429Z,5.57
2023-05-18T22:16:31.863Z,7.63
2023-05-18T22:18:37.106Z,10.32
2023-05-18T22:20:42.256Z,5.47
2023-05-18T22:22:47.581Z,6.93
2023-05-18T22:24:52.728Z,8.13
2023-05-18T22:26:57.825Z,14.75
2023-05-18T22:29:05.568Z,8.07
2023-05-18T22:31:10.668Z,9.27
2023-05-18T22:33:17.049Z,8.57
2023-05-18T22:35:22.162Z,5.88
2023-05-18T22:37:27.241Z,10.00
2023-05-18T22:39:32.423Z,7.13
2023-05-18T22:41:37.562Z,9.48
2023-05-18T22:43:43.043Z,9.38
2023-05-18T22:45:51.254Z,7.50
2023-05-18T22:47:57.757Z,8.15
2023-05-18T22:50:02.877Z,11.63
2023-05-18T22:52:10.488Z,5.53
2023-05-18T22:54:15.858Z,9.52
2023-05-18T22:56:21.980Z,12.43
2023-05-18T22:58:27.519Z,7.10
2023-05-18T23:00:32.732Z,7.45
2023-05-18T23:02:42.618Z,8.10
2023-05-18T23:04:47.776Z,6.03
2023-05-18T23:06:54.290Z,7.63
2023-05-18T23:09:00.784Z,8.30
2023-05-18T23:11:06.163Z,8.10
2023-05-18T23:13:11.762Z,4.93
2023-05-18T23:15:16.887Z,8.65
2023-05-18T23:17:23.413Z,12.05
2023-05-18T23:19:31.862Z,8.95
2023-05-18T23:21:37.207Z,9.90
2023-05-18T23:23:42.938Z,8.65
2023-05-18T23:25:48.070Z,9.15
2023-05-18T23:27:53.126Z,4.95
2023-05-18T23:29:58.203Z,11.15
2023-05-18T23:32:03.583Z,9.30
2023-05-18T23:34:10.498Z,7.43
2023-05-18T23:36:22.307Z,6.88
2023-05-18T23:38:35.061Z,11.07
2023-05-18T23:40:40.672Z,11.50
2023-05-18T23:42:46.947Z,6.20
2023-05-18T23:44:53.725Z,6.30
2023-05-18T23:47:00.111Z,8.93
2023-05-18T23:49:07.285Z,11.48
2023-05-18T23:51:17.870Z,7.82
2023-05-18T23:53:26.339Z,8.00
2023-05-18T23:55:32.172Z,14.18
2023-05-18T23:57:38.167Z,9.88
2023-05-18T23:59:45.138Z,8.13
